sensor_id;sensor_type;location;lat;lon;timestamp;pressure;altitude;pressure_sealevel;temperature;humidity
56198;BME280;42700;42.524;12.052;2023-04-15T00:00:57;105694.66;;;7.05;100.00
56198;BME280;42700;42.524;12.052;2023-04-15T00:03:23;105803.13;;;7.05;100.00
56198;BME280;42700;42.524;12.052;2023-04-15T00:05:49;106679.19;;;7.31;100.00
56198;BME280;42700;42.524;12.052;2023-04-15T00:08:14;106908.00;;;7.36;100.00
56198;BME280;42700;42.524;12.052;2023-04-15T00:10:40;105926.47;;;7.01;100.00
56198;BME280;42700;42.524;12.052;2023-04-15T00:13:08;106626.66;;;7.19;100.00
56198;BME280;42700;42.524;12.052;2023-04-15T00:15:34;107006.38;;;7.26;100.00
56198;BME280;42700;42.524;12.052;2023-04-15T00:18:00;107563.22;;;7.41;100.00
56198;BME280;42700;42.524;12.052;2023-04-15T00:20:25;107942.56;;;7.50;100.00
56198;BME280;42700;42.524;12.052;2023-04-15T00:22:51;108226.44;;;7.56;100.00
56198;BME280;42700;42.524;12.052;2023-04-15T00:25:16;108474.09;;;7.62;100.00
56198;BME280;42700;42.524;12.052;2023-04-15T00:27:42;108728.91;;;7.68;100.00
56198;BME280;42700;42.524;12.052;2023-04-15T00:30:07;108953.66;;;7.72;100.00
56198;BME280;42700;42.524;12.052;2023-04-15T00:32:33;109332.66;;;7.82;100.00
56198;BME280;42700;42.524;12.052;2023-04-15T00:34:59;109692.47;;;7.93;100.00
56198;BME280;42700;42.524;12.052;2023-04-15T00:37:25;110289.00;;;8.09;100.00
56198;BME280;42700;42.524;12.052;2023-04-15T00:39:50;110692.63;;;8.21;100.00
56198;BME280;42700;42.524;12.052;2023-04-15T00:42:16;111036.75;;;8.29;100.00
56198;BME280;42700;42.524;12.052;2023-04-15T00:44:42;111459.50;;;8.43;100.00
56198;BME280;42700;42.524;12.052;2023-04-15T00:47:07;111873.50;;;8.56;100.00
56198;BME280;42700;42.524;12.052;2023-04-15T00:49:33;112484.91;;;8.73;100.00
56198;BME280;42700;42.524;12.052;2023-04-15T00:51:59;112867.72;;;8.88;100.00
56198;BME280;42700;42.524;12.052;2023-04-15T00:54:24;113084.06;;;8.95;100.00
56198;BME280;42700;42.524;12.052;2023-04-15T00:56:50;113304.09;;;9.03;100.00
56198;BME280;42700;42.524;12.052;2023-04-15T00:59:16;113554.88;;;9.15;100.00
56198;BME280;42700;42.524;12.052;2023-04-15T01:01:42;112883.19;;;8.97;100.00
56198;BME280;42700;42.524;12.052;2023-04-15T01:04:09;113192.31;;;9.09;100.00
56198;BME280;42700;42.524;12.052;2023-04-15T01:06:35;113507.34;;;9.24;100.00
56198;BME280;42700;42.524;12.052;2023-04-15T01:09:01;113428.00;;;9.27;100.00
56198;BME280;42700;42.524;12.052;2023-04-15T01:11:27;113195.38;;;9.25;100.00
56198;BME280;42700;42.524;12.052;2023-04-15T01:13:53;113025.13;;;9.25;100.00
56198;BME280;42700;42.524;12.052;2023-04-15T01:16:20;112617.25;;;9.17;100.00
56198;BME280;42700;42.524;12.052;2023-04-15T01:18:45;112870.00;;;9.32;100.00
56198;BME280;42700;42.524;12.052;2023-04-15T01:21:11;112852.16;;;9.38;100.00
56198;BME280;42700;42.524;12.052;2023-04-15T01:23:37;112608.22;;;9.37;100.00
56198;BME280;42700;42.524;12.052;2023-04-15T01:26:03;112431.88;;;9.38;100.00
56198;BME280;42700;42.524;12.052;2023-04-15T01:28:29;112394.47;;;9.44;100.00
56198;BME280;42700;42.524;12.052;2023-04-15T01:31:13;111905.50;;;9.32;100.00
56198;BME280;42700;42.524;12.052;2023-04-15T01:33:40;112096.91;;;9.47;100.00
56198;BME280;42700;42.524;12.052;2023-04-15T01:36:07;111584.81;;;9.34;100.00
56198;BME280;42700;42.524;12.052;2023-04-15T01:38:34;111231.31;;;9.27;100.00
56198;BME280;42700;42.524;12.052;2023-04-15T01:41:00;111027.03;;;9.23;100.00
56198;BME280;42700;42.524;12.052;2023-04-15T01:43:25;111277.28;;;9.35;100.00
56198;BME280;42700;42.524;12.052;2023-04-15T01:45:51;111154.06;;;9.34;100.00
56198;BME280;42700;42.524;12.052;2023-04-15T01:48:16;111161.59;;;9.38;100.00
56198;BME280;42700;42.524;12.052;2023-04-15T01:50:43;111060.53;;;9.38;100.00
56198;BME280;42700;42.524;12.052;2023-04-15T01:53:08;111027.06;;;9.40;100.00
56198;BME280;42700;42.524;12.052;2023-04-15T01:55:34;110947.28;;;9.40;100.00
56198;BME280;42700;42.524;12.052;2023-04-15T01:57:59;110911.00;;;9.41;100.00
56198;BME280;42700;42.524;12.052;2023-04-15T02:00:25;111057.06;;;9.48;100.00
56198;BME280;42700;42.524;12.052;2023-04-15T02:02:51;111066.16;;;9.50;100.00
56198;BME280;42700;42.524;12.052;2023-04-15T02:05:17;111005.16;;;9.52;100.00
56198;BME280;42700;42.524;12.052;2023-04-15T02:07:42;110823.03;;;9.48;100.00
56198;BME280;42700;42.524;12.052;2023-04-15T02:10:08;111069.59;;;9.58;100.00
56198;BME280;42700;42.524;12.052;2023-04-15T02:12:34;111148.78;;;9.60;100.00
56198;BME280;42700;42.524;12.052;2023-04-15T02:15:00;111091.19;;;9.61;100.00
56198;BME280;42700;42.524;12.052;2023-04-15T02:17:25;111374.16;;;9.70;100.00
56198;BME280;42700;42.524;12.052;2023-04-15T02:19:51;111378.69;;;9.71;100.00
56198;BME280;42700;42.524;12.052;2023-04-15T02:22:16;111223.09;;;9.68;100.00
56198;BME280;42700;42.524;12.052;2023-04-15T02:24:42;111313.13;;;9.72;100.00
56198;BME280;42700;42.524;12.052;2023-04-15T02:27:08;111465.28;;;9.76;100.00
56198;BME280;42700;42.524;12.052;2023-04-15T02:29:34;111622.16;;;9.84;100.00
56198;BME280;42700;42.524;12.052;2023-04-15T02:31:59;111554.53;;;9.82;100.00
56198;BME280;42700;42.524;12.052;2023-04-15T02:34:25;111522.59;;;9.82;100.00
56198;BME280;42700;42.524;12.052;2023-04-15T02:36:51;111506.63;;;9.82;100.00
56198;BME280;42700;42.524;12.052;2023-04-15T02:39:21;111698.91;;;9.88;100.00
56198;BME280;42700;42.524;12.052;2023-04-15T02:41:47;110199.63;;;9.45;100.00
56198;BME280;42700;42.524;12.052;2023-04-15T02:44:16;109855.06;;;9.36;100.00
56198;BME280;42700;42.524;12.052;2023-04-15T02:46:44;109879.94;;;9.37;100.00
56198;BME280;42700;42.524;12.052;2023-04-15T02:49:13;109940.41;;;9.39;100.00
56198;BME280;42700;42.524;12.052;2023-04-15T02:51:38;110091.44;;;9.44;100.00
56198;BME280;42700;42.524;12.052;2023-04-15T02:54:04;110385.66;;;9.53;100.00
56198;BME280;42700;42.524;12.052;2023-04-15T02:56:29;110486.03;;;9.56;100.00
56198;BME280;42700;42.524;12.052;2023-04-15T02:58:55;110682.38;;;9.60;100.00
56198;BME280;42700;42.524;12.052;2023-04-15T03:01:21;110972.25;;;9.69;100.00
56198;BME280;42700;42.524;12.052;2023-04-15T03:03:47;111135.94;;;9.74;100.00
56198;BME280;42700;42.524;12.052;2023-04-15T03:06:12;111567.38;;;9.86;100.00
56198;BME280;42700;42.524;12.052;2023-04-15T03:08:38;111895.63;;;9.93;100.00
56198;BME280;42700;42.524;12.052;2023-04-15T03:11:03;111823.22;;;9.89;100.00
56198;BME280;42700;42.524;12.052;2023-04-15T03:13:29;111999.44;;;9.93;100.00
56198;BME280;42700;42.524;12.052;2023-04-15T03:15:54;112129.28;;;9.96;100.00
56198;BME280;42700;42.524;12.052;2023-04-15T03:18:20;112405.00;;;10.01;100.00
56198;BME280;42700;42.524;12.052;2023-04-15T03:20:45;112302.31;;;9.96;100.00
56198;BME280;42700;42.524;12.052;2023-04-15T03:23:11;111729.84;;;9.78;100.00
56198;BME280;42700;42.524;12.052;2023-04-15T03:25:36;112125.91;;;9.90;100.00
56198;BME280;42700;42.524;12.052;2023-04-15T03:28:02;111670.78;;;9.74;100.00
56198;BME280;42700;42.524;12.052;2023-04-15T03:30:28;111955.59;;;9.83;100.00
56198;BME280;42700;42.524;12.052;2023-04-15T03:32:53;111769.41;;;9.75;100.00
56198;BME280;42700;42.524;12.052;2023-04-15T03:35:19;112156.38;;;9.85;100.00
56198;BME280;42700;42.524;12.052;2023-04-15T03:37:44;112077.69;;;9.79;100.00
56198;BME280;42700;42.524;12.052;2023-04-15T03:40:10;111904.94;;;9.74;100.00
56198;BME280;42700;42.524;12.052;2023-04-15T03:42:35;111536.53;;;9.63;100.00
56198;BME280;42700;42.524;12.052;2023-04-15T03:45:01;111582.56;;;9.62;100.00
56198;BME280;42700;42.524;12.052;2023-04-15T03:47:26;111527.47;;;9.61;100.00
56198;BME280;42700;42.524;12.052;2023-04-15T03:49:52;111186.47;;;9.48;100.00
56198;BME280;42700;42.524;12.052;2023-04-15T03:52:17;111506.47;;;9.55;100.00
56198;BME280;42700;42.524;12.052;2023-04-15T03:54:43;111889.63;;;9.64;100.00
56198;BME280;42700;42.524;12.052;2023-04-15T03:57:08;111946.25;;;9.63;100.00
56198;BME280;42700;42.524;12.052;2023-04-15T03:59:34;112044.72;;;9.63;100.00
56198;BME280;42700;42.524;12.052;2023-04-15T04:01:59;111633.47;;;9.49;100.00
56198;BME280;42700;42.524;12.052;2023-04-15T04:04:25;112188.41;;;9.63;100.00
56198;BME280;42700;42.524;12.052;2023-04-15T04:06:50;112196.97;;;9.60;100.00
56198;BME280;42700;42.524;12.052;2023-04-15T04:09:16;112202.88;;;9.58;100.00
56198;BME280;42700;42.524;12.052;2023-04-15T04:11:41;112519.53;;;9.65;100.00
56198;BME280;42700;42.524;12.052;2023-04-15T04:14:07;112415.72;;;9.58;100.00
56198;BME280;42700;42.524;12.052;2023-04-15T04:16:32;112855.25;;;9.68;100.00
56198;BME280;42700;42.524;12.052;2023-04-15T04:18:58;112538.91;;;9.57;100.00
56198;BME280;42700;42.524;12.052;2023-04-15T04:21:23;112648.94;;;9.57;100.00
56198;BME280;42700;42.524;12.052;2023-04-15T04:23:49;112833.88;;;9.61;100.00
56198;BME280;42700;42.524;12.052;2023-04-15T04:26:15;112687.72;;;9.55;100.00
56198;BME280;42700;42.524;12.052;2023-04-15T04:28:40;112674.94;;;9.53;100.00
56198;BME280;42700;42.524;12.052;2023-04-15T04:31:06;112554.47;;;9.47;100.00
56198;BME280;42700;42.524;12.052;2023-04-15T04:33:32;113140.91;;;9.62;100.00
56198;BME280;42700;42.524;12.052;2023-04-15T04:35:57;113264.28;;;9.62;100.00
56198;BME280;42700;42.524;12.052;2023-04-15T04:38:23;113323.78;;;9.63;100.00
56198;BME280;42700;42.524;12.052;2023-04-15T04:40:49;113024.28;;;9.52;100.00
56198;BME280;42700;42.524;12.052;2023-04-15T04:43:14;113036.41;;;9.50;100.00
56198;BME280;42700;42.524;12.052;2023-04-15T04:45:40;113289.09;;;9.55;100.00
56198;BME280;42700;42.524;12.052;2023-04-15T04:48:06;113977.53;;;9.73;100.00
56198;BME280;42700;42.524;12.052;2023-04-15T04:50:33;115017.13;;;10.02;100.00
56198;BME280;42700;42.524;12.052;2023-04-15T04:52:59;115136.31;;;10.03;100.00
56198;BME280;42700;42.524;12.052;2023-04-15T04:55:25;115602.06;;;10.15;100.00
56198;BME280;42700;42.524;12.052;2023-04-15T04:57:51;115452.75;;;10.10;100.00
56198;BME280;42700;42.524;12.052;2023-04-15T05:00:16;115608.13;;;10.14;100.00
56198;BME280;42700;42.524;12.052;2023-04-15T05:02:42;115626.03;;;10.15;100.00
56198;BME280;42700;42.524;12.052;2023-04-15T05:05:08;115741.19;;;10.19;100.00
56198;BME280;42700;42.524;12.052;2023-04-15T05:07:34;115142.09;;;10.01;100.00
56198;BME280;42700;42.524;12.052;2023-04-15T05:09:59;114500.09;;;9.84;100.00
56198;BME280;42700;42.524;12.052;2023-04-15T05:12:25;114031.03;;;9.69;100.00
56198;BME280;42700;42.524;12.052;2023-04-15T05:14:50;114279.59;;;9.75;100.00
56198;BME280;42700;42.524;12.052;2023-04-15T05:17:16;115138.47;;;10.00;100.00
56198;BME280;42700;42.524;12.052;2023-04-15T05:19:42;115014.19;;;9.95;100.00
56198;BME280;42700;42.524;12.052;2023-04-15T05:22:07;113831.72;;;9.59;100.00
56198;BME280;42700;42.524;12.052;2023-04-15T05:24:32;114103.44;;;9.67;100.00
56198;BME280;42700;42.524;12.052;2023-04-15T05:26:58;114763.75;;;9.84;100.00
56198;BME280;42700;42.524;12.052;2023-04-15T05:29:25;115862.28;;;10.15;100.00
56198;BME280;42700;42.524;12.052;2023-04-15T05:31:51;114260.28;;;9.65;100.00
56198;BME280;42700;42.524;12.052;2023-04-15T05:34:16;114868.34;;;9.83;100.00
56198;BME280;42700;42.524;12.052;2023-04-15T05:36:42;115362.47;;;9.96;100.00
56198;BME280;42700;42.524;12.052;2023-04-15T05:39:07;116166.72;;;10.18;100.00
56198;BME280;42700;42.524;12.052;2023-04-15T05:41:33;116115.78;;;10.16;100.00
56198;BME280;42700;42.524;12.052;2023-04-15T05:43:59;115144.91;;;9.85;100.00
56198;BME280;42700;42.524;12.052;2023-04-15T05:46:25;115592.13;;;9.99;100.00
56198;BME280;42700;42.524;12.052;2023-04-15T05:48:51;115474.09;;;9.94;100.00
56198;BME280;42700;42.524;12.052;2023-04-15T05:51:17;116123.22;;;10.13;100.00
56198;BME280;42700;42.524;12.052;2023-04-15T05:53:42;114664.72;;;9.69;100.00
56198;BME280;42700;42.524;12.052;2023-04-15T05:56:08;114405.03;;;9.60;100.00
56198;BME280;42700;42.524;12.052;2023-04-15T05:58:33;115764.63;;;10.00;100.00
56198;BME280;42700;42.524;12.052;2023-04-15T06:00:59;115980.31;;;10.04;100.00
56198;BME280;42700;42.524;12.052;2023-04-15T06:03:25;116286.53;;;10.12;100.00
56198;BME280;42700;42.524;12.052;2023-04-15T06:05:50;115420.97;;;9.85;100.00
56198;BME280;42700;42.524;12.052;2023-04-15T06:08:16;115401.06;;;9.83;100.00
56198;BME280;42700;42.524;12.052;2023-04-15T06:10:42;114794.69;;;9.60;100.00
56198;BME280;42700;42.524;12.052;2023-04-15T06:13:07;114481.50;;;9.50;100.00
56198;BME280;42700;42.524;12.052;2023-04-15T06:15:33;114940.44;;;9.62;100.00
56198;BME280;42700;42.524;12.052;2023-04-15T06:17:58;115954.84;;;9.91;100.00
56198;BME280;42700;42.524;12.052;2023-04-15T06:20:24;114878.44;;;9.57;100.00
56198;BME280;42700;42.524;12.052;2023-04-15T06:22:49;115184.91;;;9.64;100.00
56198;BME280;42700;42.524;12.052;2023-04-15T06:25:15;116064.81;;;9.90;100.00
56198;BME280;42700;42.524;12.052;2023-04-15T06:27:41;115675.63;;;9.78;100.00
56198;BME280;42700;42.524;12.052;2023-04-15T06:30:06;116149.66;;;9.92;100.00
56198;BME280;42700;42.524;12.052;2023-04-15T06:32:32;115697.63;;;9.77;100.00
56198;BME280;42700;42.524;12.052;2023-04-15T06:34:58;115672.69;;;9.77;100.00
56198;BME280;42700;42.524;12.052;2023-04-15T06:37:23;115382.50;;;9.67;100.00
56198;BME280;42700;42.524;12.052;2023-04-15T06:39:49;114670.25;;;9.42;100.00
56198;BME280;42700;42.524;12.052;2023-04-15T06:42:15;115203.25;;;9.57;100.00
56198;BME280;42700;42.524;12.052;2023-04-15T06:44:40;115406.63;;;9.63;100.00
56198;BME280;42700;42.524;12.052;2023-04-15T06:47:06;116303.91;;;9.91;100.00
56198;BME280;42700;42.524;12.052;2023-04-15T06:49:33;116469.03;;;9.95;100.00
56198;BME280;42700;42.524;12.052;2023-04-15T06:51:59;117008.97;;;10.12;100.00
56198;BME280;42700;42.524;12.052;2023-04-15T06:54:24;117458.00;;;10.27;100.00
56198;BME280;42700;42.524;12.052;2023-04-15T06:56:51;117634.28;;;10.32;100.00
56198;BME280;42700;42.524;12.052;2023-04-15T06:59:16;117101.50;;;10.18;100.00
56198;BME280;42700;42.524;12.052;2023-04-15T07:01:42;116356.09;;;9.94;100.00
56198;BME280;42700;42.524;12.052;2023-04-15T07:04:07;117357.41;;;10.22;100.00
56198;BME280;42700;42.524;12.052;2023-04-15T07:06:33;116840.53;;;10.05;100.00
56198;BME280;42700;42.524;12.052;2023-04-15T07:08:59;117938.69;;;10.38;100.00
56198;BME280;42700;42.524;12.052;2023-04-15T07:11:26;116975.41;;;10.09;100.00
56198;BME280;42700;42.524;12.052;2023-04-15T07:13:51;117554.00;;;10.27;100.00
56198;BME280;42700;42.524;12.052;2023-04-15T07:16:17;117908.28;;;10.42;100.00
56198;BME280;42700;42.524;12.052;2023-04-15T07:18:43;118562.97;;;10.63;100.00
56198;BME280;42700;42.524;12.052;2023-04-15T07:21:08;117919.22;;;10.47;100.00
56198;BME280;42700;42.524;12.052;2023-04-15T07:23:34;119357.50;;;10.98;100.00
56198;BME280;42700;42.524;12.052;2023-04-15T07:26:00;118925.75;;;10.90;100.00
56198;BME280;42700;42.524;12.052;2023-04-15T07:28:25;118576.28;;;10.83;100.00
56198;BME280;42700;42.524;12.052;2023-04-15T07:30:51;118310.97;;;10.79;100.00
56198;BME280;42700;42.524;12.052;2023-04-15T07:33:17;118684.06;;;10.92;100.00
56198;BME280;42700;42.524;12.052;2023-04-15T07:35:42;119905.50;;;11.37;100.00
56198;BME280;42700;42.524;12.052;2023-04-15T07:38:08;119227.44;;;11.21;100.00
56198;BME280;42700;42.524;12.052;2023-04-15T07:40:33;118817.63;;;11.17;100.00
56198;BME280;42700;42.524;12.052;2023-04-15T07:42:59;119450.13;;;11.45;100.00
56198;BME280;42700;42.524;12.052;2023-04-15T07:45:24;119841.50;;;11.69;100.00
56198;BME280;42700;42.524;12.052;2023-04-15T07:47:50;119014.44;;;11.49;100.00
56198;BME280;42700;42.524;12.052;2023-04-15T07:50:15;119372.78;;;11.70;100.00
56198;BME280;42700;42.524;12.052;2023-04-15T07:52:41;119019.13;;;11.67;100.00
56198;BME280;42700;42.524;12.052;2023-04-15T07:55:07;118446.75;;;11.53;100.00
56198;BME280;42700;42.524;12.052;2023-04-15T07:57:33;118434.69;;;11.55;100.00
56198;BME280;42700;42.524;12.052;2023-04-15T08:00:00;118092.00;;;11.48;100.00
56198;BME280;42700;42.524;12.052;2023-04-15T08:02:25;118590.00;;;11.64;100.00
56198;BME280;42700;42.524;12.052;2023-04-15T08:04:51;117895.22;;;11.48;100.00
56198;BME280;42700;42.524;12.052;2023-04-15T08:07:18;118595.97;;;11.76;100.00
56198;BME280;42700;42.524;12.052;2023-04-15T08:09:43;119330.94;;;12.10;100.00
56198;BME280;42700;42.524;12.052;2023-04-15T08:12:09;117735.84;;;11.67;100.00
56198;BME280;42700;42.524;12.052;2023-04-15T08:14:37;117392.03;;;11.53;100.00
56198;BME280;42700;42.524;12.052;2023-04-15T08:17:03;118420.69;;;11.90;100.00
56198;BME280;42700;42.524;12.052;2023-04-15T08:19:29;116457.81;;;11.29;100.00
56198;BME280;42700;42.524;12.052;2023-04-15T08:21:55;117087.25;;;11.48;100.00
56198;BME280;42700;42.524;12.052;2023-04-15T08:24:21;117660.34;;;11.68;100.00
56198;BME280;42700;42.524;12.052;2023-04-15T08:26:46;117422.56;;;11.63;100.00
56198;BME280;42700;42.524;12.052;2023-04-15T08:29:12;117375.63;;;11.70;100.00
56198;BME280;42700;42.524;12.052;2023-04-15T08:31:38;115213.91;;;10.98;100.00
56198;BME280;42700;42.524;12.052;2023-04-15T08:34:03;116829.81;;;11.47;100.00
56198;BME280;42700;42.524;12.052;2023-04-15T08:36:29;117486.09;;;11.74;100.00
56198;BME280;42700;42.524;12.052;2023-04-15T08:38:55;115829.94;;;11.21;100.00
56198;BME280;42700;42.524;12.052;2023-04-15T08:41:21;116816.19;;;11.55;100.00
56198;BME280;42700;42.524;12.052;2023-04-15T08:43:56;116871.44;;;11.60;100.00
56198;BME280;42700;42.524;12.052;2023-04-15T08:46:21;116298.88;;;11.46;100.00
56198;BME280;42700;42.524;12.052;2023-04-15T08:48:47;114965.50;;;11.02;100.00
56198;BME280;42700;42.524;12.052;2023-04-15T08:51:13;115496.91;;;11.15;100.00
56198;BME280;42700;42.524;12.052;2023-04-15T08:53:41;116238.47;;;11.37;100.00
56198;BME280;42700;42.524;12.052;2023-04-15T08:56:07;114802.03;;;10.92;100.00
56198;BME280;42700;42.524;12.052;2023-04-15T08:58:36;114864.09;;;10.90;100.00
56198;BME280;42700;42.524;12.052;2023-04-15T09:01:02;114457.78;;;10.73;100.00
56198;BME280;42700;42.524;12.052;2023-04-15T09:03:27;114604.69;;;10.75;100.00
56198;BME280;42700;42.524;12.052;2023-04-15T09:05:53;115123.16;;;10.86;100.00
56198;BME280;42700;42.524;12.052;2023-04-15T09:08:19;115456.69;;;10.92;100.00
56198;BME280;42700;42.524;12.052;2023-04-15T09:10:44;115734.09;;;11.02;100.00
56198;BME280;42700;42.524;12.052;2023-04-15T09:13:10;115898.22;;;11.10;100.00
56198;BME280;42700;42.524;12.052;2023-04-15T09:15:37;116134.78;;;11.19;100.00
56198;BME280;42700;42.524;12.052;2023-04-15T09:18:02;115652.59;;;11.04;100.00
56198;BME280;42700;42.524;12.052;2023-04-15T09:20:28;115712.81;;;11.07;100.00
56198;BME280;42700;42.524;12.052;2023-04-15T09:22:54;115238.13;;;10.94;100.00
56198;BME280;42700;42.524;12.052;2023-04-15T09:27:54;115535.19;;;11.04;100.00
56198;BME280;42700;42.524;12.052;2023-04-15T09:30:20;115669.63;;;11.10;100.00
56198;BME280;42700;42.524;12.052;2023-04-15T09:32:49;114280.38;;;10.64;100.00
56198;BME280;42700;42.524;12.052;2023-04-15T09:35:16;116182.94;;;11.24;100.00
56198;BME280;42700;42.524;12.052;2023-04-15T09:37:41;114675.47;;;10.78;100.00
56198;BME280;42700;42.524;12.052;2023-04-15T09:40:07;115684.94;;;11.11;100.00
56198;BME280;42700;42.524;12.052;2023-04-15T09:42:34;115595.94;;;11.16;100.00
56198;BME280;42700;42.524;12.052;2023-04-15T09:45:11;116460.13;;;11.47;100.00
56198;BME280;42700;42.524;12.052;2023-04-15T09:47:37;115236.75;;;11.13;100.00
56198;BME280;42700;42.524;12.052;2023-04-15T09:50:03;115452.28;;;11.19;100.00
56198;BME280;42700;42.524;12.052;2023-04-15T09:52:28;115714.59;;;11.39;100.00
56198;BME280;42700;42.524;12.052;2023-04-15T09:54:55;114506.06;;;10.99;100.00
56198;BME280;42700;42.524;12.052;2023-04-15T09:57:21;116678.75;;;11.69;100.00
56198;BME280;42700;42.524;12.052;2023-04-15T09:59:48;116103.50;;;11.70;100.00
56198;BME280;42700;42.524;12.052;2023-04-15T10:02:13;116984.94;;;12.06;100.00
56198;BME280;42700;42.524;12.052;2023-04-15T10:04:40;117289.44;;;12.42;100.00
56198;BME280;42700;42.524;12.052;2023-04-15T10:07:07;118068.63;;;13.07;100.00
56198;BME280;42700;42.524;12.052;2023-04-15T10:09:37;115092.44;;;12.31;100.00
56198;BME280;42700;42.524;12.052;2023-04-15T10:12:03;117098.44;;;13.29;100.00
56198;BME280;42700;42.524;12.052;2023-04-15T10:14:30;116304.59;;;13.45;100.00
56198;BME280;42700;42.524;12.052;2023-04-15T10:16:56;116450.03;;;13.71;100.00
56198;BME280;42700;42.524;12.052;2023-04-15T10:19:25;116472.03;;;15.15;100.00
56198;BME280;42700;42.524;12.052;2023-04-15T10:21:51;116563.03;;;15.57;100.00
56198;BME280;42700;42.524;12.052;2023-04-15T10:24:17;113067.06;;;15.97;100.00
56198;BME280;42700;42.524;12.052;2023-04-15T10:26:43;110121.75;;;14.49;100.00
56198;BME280;42700;42.524;12.052;2023-04-15T10:29:09;113459.53;;;16.37;100.00
56198;BME280;42700;42.524;12.052;2023-04-15T10:31:35;112671.09;;;16.62;100.00
56198;BME280;42700;42.524;12.052;2023-04-15T10:34:02;110769.03;;;16.72;100.00
56198;BME280;42700;42.524;12.052;2023-04-15T10:36:31;109277.84;;;16.41;100.00
56198;BME280;42700;42.524;12.052;2023-04-15T10:38:56;108626.47;;;17.23;100.00
56198;BME280;42700;42.524;12.052;2023-04-15T10:41:23;109115.59;;;17.81;100.00
56198;BME280;42700;42.524;12.052;2023-04-15T10:46:36;104344.66;;;15.90;100.00
56198;BME280;42700;42.524;12.052;2023-04-15T10:49:12;104727.38;;;15.15;100.00
56198;BME280;42700;42.524;12.052;2023-04-15T10:51:38;104414.19;;;15.05;100.00
56198;BME280;42700;42.524;12.052;2023-04-15T10:54:13;105457.56;;;15.48;100.00
56198;BME280;42700;42.524;12.052;2023-04-15T10:56:43;105484.31;;;15.54;100.00
56198;BME280;42700;42.524;12.052;2023-04-15T10:59:09;104101.84;;;15.55;100.00
56198;BME280;42700;42.524;12.052;2023-04-15T11:07:11;104965.47;;;16.17;100.00
56198;BME280;42700;42.524;12.052;2023-04-15T11:09:37;101154.34;;;15.00;100.00
56198;BME280;42700;42.524;12.052;2023-04-15T11:12:06;103332.28;;;15.62;100.00
56198;BME280;42700;42.524;12.052;2023-04-15T11:14:39;103858.56;;;16.29;100.00
56198;BME280;42700;42.524;12.052;2023-04-15T11:17:06;101777.81;;;15.27;100.00
56198;BME280;42700;42.524;12.052;2023-04-15T11:19:35;103763.09;;;16.23;100.00
56198;BME280;42700;42.524;12.052;2023-04-15T11:22:05;103440.94;;;16.46;100.00
56198;BME280;42700;42.524;12.052;2023-04-15T11:24:31;103470.69;;;16.96;100.00
56198;BME280;42700;42.524;12.052;2023-04-15T11:26:56;103855.47;;;17.41;100.00
56198;BME280;42700;42.524;12.052;2023-04-15T11:29:27;100880.56;;;16.74;100.00
56198;BME280;42700;42.524;12.052;2023-04-15T11:31:53;99946.00;;;16.31;100.00
56198;BME280;42700;42.524;12.052;2023-04-15T11:34:26;100465.78;;;16.54;100.00
56198;BME280;42700;42.524;12.052;2023-04-15T11:36:51;99203.41;;;16.39;100.00
56198;BME280;42700;42.524;12.052;2023-04-15T11:39:21;100569.09;;;16.58;100.00
56198;BME280;42700;42.524;12.052;2023-04-15T11:41:46;99064.00;;;15.93;100.00
56198;BME280;42700;42.524;12.052;2023-04-15T11:44:16;101389.44;;;16.98;100.00
56198;BME280;42700;42.524;12.052;2023-04-15T11:46:42;99354.19;;;16.41;100.00
56198;BME280;42700;42.524;12.052;2023-04-15T11:49:07;101057.31;;;17.39;100.00
56198;BME280;42700;42.524;12.052;2023-04-15T11:51:33;101062.75;;;17.78;100.00
56198;BME280;42700;42.524;12.052;2023-04-15T11:53:59;100743.59;;;17.80;100.00
56198;BME280;42700;42.524;12.052;2023-04-15T11:56:25;100039.34;;;17.90;100.00
56198;BME280;42700;42.524;12.052;2023-04-15T11:58:51;99377.78;;;17.40;100.00
56198;BME280;42700;42.524;12.052;2023-04-15T12:01:17;100757.09;;;18.44;100.00
56198;BME280;42700;42.524;12.052;2023-04-15T12:03:46;100382.00;;;19.63;100.00
56198;BME280;42700;42.524;12.052;2023-04-15T12:06:13;99284.88;;;19.45;100.00
56198;BME280;42700;42.524;12.052;2023-04-15T12:11:15;91867.84;;;16.02;100.00
56198;BME280;42700;42.524;12.052;2023-04-15T12:13:47;93262.50;;;16.10;100.00
56198;BME280;42700;42.524;12.052;2023-04-15T12:16:19;98201.69;;;18.20;100.00
56198;BME280;42700;42.524;12.052;2023-04-15T12:18:46;92628.41;;;16.35;100.00
56198;BME280;42700;42.524;12.052;2023-04-15T12:21:12;96797.31;;;17.51;100.00
56198;BME280;42700;42.524;12.052;2023-04-15T12:24:00;92815.69;;;16.44;100.00
56198;BME280;42700;42.524;12.052;2023-04-15T12:26:28;94201.16;;;16.55;100.00
56198;BME280;42700;42.524;12.052;2023-04-15T12:28:54;94164.84;;;16.76;100.00
56198;BME280;42700;42.524;12.052;2023-04-15T12:31:20;92435.56;;;16.28;100.00
56198;BME280;42700;42.524;12.052;2023-04-15T12:33:47;93616.13;;;16.61;100.00
56198;BME280;42700;42.524;12.052;2023-04-15T12:36:13;93282.31;;;16.65;100.00
56198;BME280;42700;42.524;12.052;2023-04-15T12:38:38;90621.00;;;15.84;100.00
56198;BME280;42700;42.524;12.052;2023-04-15T12:41:04;91431.44;;;15.93;100.00
56198;BME280;42700;42.524;12.052;2023-04-15T12:43:29;90112.81;;;15.19;100.00